createdAt,value
2023-05-14T00:00:04.019Z,27.02
2023-05-14T00:01:04.025Z,27.04
2023-05-14T00:02:04.068Z,27.05
2023-05-14T00:03:04.056Z,27.02
2023-05-14T00:04:04.108Z,27.01
2023-05-14T00:05:03.974Z,27.02
2023-05-14T00:06:03.991Z,27.01
2023-05-14T00:07:03.971Z,27.01
2023-05-14T00:08:03.970Z,27.02
2023-05-14T00:09:04.000Z,27.02
2023-05-14T00:10:03.964Z,27.02
2023-05-14T00:11:03.957Z,27.02
2023-05-14T00:12:03.974Z,27.01
2023-05-14T00:13:03.917Z,27.01
2023-05-14T00:14:03.907Z,27.01
2023-05-14T00:15:03.907Z,27.02
2023-05-14T00:16:03.929Z,27.02
2023-05-14T00:17:03.893Z,27.02
2023-05-14T00:18:03.944Z,26.99
2023-05-14T00:19:03.965Z,27.02
2023-05-14T00:20:03.920Z,27.02
2023-05-14T00:21:03.890Z,27.01
2023-05-14T00:22:03.857Z,26.99
2023-05-14T00:23:03.865Z,26.98
2023-05-14T00:24:03.848Z,27.02
2023-05-14T00:25:03.861Z,26.99
2023-05-14T00:26:03.817Z,26.98
2023-05-14T00:27:03.876Z,26.99
2023-05-14T00:28:03.834Z,26.99
2023-05-14T00:29:03.820Z,26.99
2023-05-14T00:30:03.799Z,26.99
2023-05-14T00:31:03.807Z,26.98
2023-05-14T00:32:03.797Z,26.98
2023-05-14T00:33:03.898Z,26.98
2023-05-14T00:34:03.743Z,27.01
2023-05-14T00:35:03.787Z,26.98
2023-05-14T00:36:03.736Z,26.97
2023-05-14T00:37:03.774Z,26.98
2023-05-14T00:38:03.793Z,26.98
2023-05-14T00:39:03.775Z,26.98
2023-05-14T00:40:03.837Z,26.99
2023-05-14T00:41:03.748Z,26.99
2023-05-14T00:42:03.728Z,26.97
2023-05-14T00:43:03.712Z,26.97
2023-05-14T00:44:03.729Z,26.97
2023-05-14T00:45:03.695Z,26.97
2023-05-14T00:46:03.706Z,26.97
2023-05-14T00:47:03.837Z,26.94
2023-05-14T00:48:03.753Z,26.95
2023-05-14T00:49:03.704Z,26.95
2023-05-14T00:50:03.665Z,26.97
2023-05-14T00:51:03.639Z,26.95
2023-05-14T00:52:03.664Z,26.98
2023-05-14T00:53:03.655Z,26.97
2023-05-14T00:54:03.649Z,26.95
2023-05-14T00:55:03.659Z,26.95
2023-05-14T00:56:03.631Z,26.98
2023-05-14T00:57:03.602Z,26.95
2023-05-14T00:58:03.599Z,26.94
2023-05-14T00:59:03.606Z,26.98
2023-05-14T01:00:03.589Z,26.95
2023-05-14T01:01:03.645Z,26.98
2023-05-14T01:02:03.608Z,26.95
2023-05-14T01:03:03.759Z,26.95
2023-05-14T01:04:03.623Z,26.97
2023-05-14T01:05:03.575Z,26.97
2023-05-14T01:06:03.579Z,26.95
2023-05-14T01:07:03.556Z,26.95
2023-05-14T01:08:03.591Z,26.95
2023-05-14T01:09:03.551Z,26.97
2023-05-14T01:10:03.557Z,26.95
2023-05-14T01:11:03.560Z,26.95
2023-05-14T01:12:03.549Z,26.97
2023-05-14T01:13:03.529Z,26.97
2023-05-14T01:14:03.506Z,26.95
2023-05-14T01:15:03.521Z,26.98
2023-05-14T01:16:03.516Z,26.95
2023-05-14T01:17:03.475Z,26.97
2023-05-14T01:18:03.530Z,26.95
2023-05-14T01:19:03.476Z,26.94
2023-05-14T01:20:03.455Z,26.94
2023-05-14T01:21:03.438Z,26.97
2023-05-14T01:22:03.453Z,26.95
2023-05-14T01:23:03.439Z,26.94
2023-05-14T01:24:03.454Z,26.95
2023-05-14T01:25:03.436Z,26.93
2023-05-14T01:26:03.434Z,26.93
2023-05-14T01:27:03.393Z,26.93
2023-05-14T01:28:03.430Z,26.94
2023-05-14T01:29:03.394Z,26.91
2023-05-14T01:30:03.413Z,26.93
2023-05-14T01:31:03.379Z,26.94
2023-05-14T01:32:03.478Z,26.94
2023-05-14T01:33:03.421Z,26.94
2023-05-14T01:34:03.354Z,26.93
2023-05-14T01:35:03.359Z,26.94
2023-05-14T01:36:03.382Z,26.94
2023-05-14T01:37:03.320Z,26.94
2023-05-14T01:38:03.333Z,26.94
2023-05-14T01:39:03.341Z,26.94
2023-05-14T01:40:03.354Z,26.93
2023-05-14T01:41:03.307Z,26.93
2023-05-14T01:42:03.356Z,26.93
2023-05-14T01:43:03.335Z,26.91
2023-05-14T01:44:03.288Z,26.93
2023-05-14T01:45:03.317Z,26.93
2023-05-14T01:46:03.345Z,26.91
2023-05-14T01:47:03.235Z,26.90
2023-05-14T01:48:03.297Z,26.91
2023-05-14T01:49:03.223Z,26.91
2023-05-14T01:50:03.238Z,26.93
2023-05-14T01:51:03.264Z,26.91
2023-05-14T01:52:03.262Z,26.93
2023-05-14T01:53:03.227Z,26.93
2023-05-14T01:54:03.232Z,26.91
2023-05-14T01:55:03.233Z,26.91
2023-05-14T01:56:03.255Z,26.90
2023-05-14T01:57:03.213Z,26.90
2023-05-14T01:58:03.204Z,26.90
2023-05-14T01:59:03.167Z,26.91
2023-05-14T02:00:03.178Z,26.90
2023-05-14T02:01:03.123Z,26.90
2023-05-14T02:02:03.167Z,26.90
2023-05-14T02:03:03.229Z,26.90
2023-05-14T02:04:03.201Z,26.90
2023-05-14T02:05:04.338Z,26.90
2023-05-14T02:06:03.118Z,26.90
2023-05-14T02:07:03.102Z,26.91
2023-05-14T02:08:03.102Z,26.90
2023-05-14T02:09:03.141Z,26.90
2023-05-14T02:10:03.145Z,26.88
2023-05-14T02:11:03.092Z,26.85
2023-05-14T02:12:03.073Z,26.88
2023-05-14T02:13:03.088Z,26.90
2023-05-14T02:14:03.084Z,26.91
2023-05-14T02:15:03.069Z,26.88
2023-05-14T02:16:03.118Z,26.91
2023-05-14T02:17:03.060Z,26.87
2023-05-14T02:18:03.107Z,26.90
2023-05-14T02:19:03.090Z,26.87
2023-05-14T02:20:03.054Z,26.87
2023-05-14T02:21:03.028Z,26.90
2023-05-14T02:22:03.011Z,26.87
2023-05-14T02:23:03.033Z,26.87
2023-05-14T02:24:02.981Z,26.88
2023-05-14T02:25:02.986Z,26.87
2023-05-14T02:26:02.969Z,26.87
2023-05-14T02:27:02.974Z,26.87
2023-05-14T02:28:03.027Z,26.87
2023-05-14T02:29:02.977Z,26.85
2023-05-14T02:30:03.003Z,26.87
2023-05-14T02:31:03.012Z,26.87
2023-05-14T02:32:02.962Z,26.87
2023-05-14T02:33:03.054Z,26.90
2023-05-14T02:34:02.933Z,26.88
2023-05-14T02:35:02.916Z,26.88
2023-05-14T02:36:02.935Z,26.87
2023-05-14T02:37:02.932Z,26.87
2023-05-14T02:38:02.897Z,26.88
2023-05-14T02:39:02.895Z,26.90
2023-05-14T02:40:02.876Z,26.88
2023-05-14T02:41:02.869Z,26.85
2023-05-14T02:42:02.882Z,26.88
2023-05-14T02:43:02.872Z,26.85
2023-05-14T02:44:02.879Z,26.88
2023-05-14T02:45:02.853Z,26.88
2023-05-14T02:46:02.871Z,26.88
2023-05-14T02:47:02.933Z,26.88
2023-05-14T02:48:02.861Z,26.84
2023-05-14T02:49:02.805Z,26.87
2023-05-14T02:50:02.829Z,26.88
2023-05-14T02:51:02.831Z,26.85
2023-05-14T02:52:02.816Z,26.85
2023-05-14T02:53:02.814Z,26.87
2023-05-14T02:54:02.796Z,26.90
2023-05-14T02:55:02.769Z,26.88
2023-05-14T02:56:02.770Z,26.87
2023-05-14T02:57:02.784Z,26.85
2023-05-14T02:58:02.757Z,26.88
2023-05-14T02:59:02.741Z,26.88
2023-05-14T03:00:02.774Z,26.87
2023-05-14T03:01:02.764Z,26.87
2023-05-14T03:02:02.781Z,26.87
2023-05-14T03:03:02.744Z,26.88
2023-05-14T03:04:02.737Z,26.87
2023-05-14T03:05:02.708Z,26.88
2023-05-14T03:06:02.724Z,26.87
2023-05-14T03:07:02.690Z,26.87
2023-05-14T03:08:02.712Z,26.87
2023-05-14T03:09:02.681Z,26.85
2023-05-14T03:10:02.677Z,26.85
2023-05-14T03:11:02.663Z,26.87
2023-05-14T03:12:02.677Z,26.88
2023-05-14T03:13:02.698Z,26.85
2023-05-14T03:14:02.653Z,26.88
2023-05-14T03:15:02.669Z,26.87
2023-05-14T03:16:02.662Z,26.87
2023-05-14T03:17:02.841Z,26.87
2023-05-14T03:18:02.665Z,26.85
2023-05-14T03:19:02.643Z,26.85
2023-05-14T03:20:02.620Z,26.84
2023-05-14T03:21:02.625Z,26.85
2023-05-14T03:22:02.641Z,26.85
2023-05-14T03:23:02.594Z,26.84
2023-05-14T03:24:02.632Z,26.85
2023-05-14T03:25:02.559Z,26.85
2023-05-14T03:26:02.577Z,26.84
2023-05-14T03:27:02.567Z,26.85
2023-05-14T03:28:02.557Z,26.83
2023-05-14T03:29:02.577Z,26.84
2023-05-14T03:30:02.556Z,26.84
2023-05-14T03:31:02.590Z,26.84
2023-05-14T03:32:02.535Z,26.81
2023-05-14T03:33:02.516Z,26.84
2023-05-14T03:34:02.555Z,26.84
2023-05-14T03:35:02.528Z,26.81
2023-05-14T03:36:02.485Z,26.83
2023-05-14T03:37:02.491Z,26.83
2023-05-14T03:38:02.460Z,26.83
2023-05-14T03:39:02.492Z,26.84
2023-05-14T03:40:02.499Z,26.81
2023-05-14T03:41:02.446Z,26.81
2023-05-14T03:42:02.484Z,26.80
2023-05-14T03:43:02.472Z,26.83
2023-05-14T03:44:02.464Z,26.81
2023-05-14T03:45:02.418Z,26.81
2023-05-14T03:46:02.439Z,26.81
2023-05-14T03:47:02.491Z,26.81
2023-05-14T03:48:02.515Z,26.83
2023-05-14T03:49:02.597Z,26.78
2023-05-14T03:50:02.407Z,26.83
2023-05-14T03:51:02.442Z,26.80
2023-05-14T03:52:02.510Z,26.80
2023-05-14T03:53:02.520Z,26.80
2023-05-14T03:54:02.499Z,26.80
2023-05-14T03:55:02.523Z,26.81
2023-05-14T03:56:02.570Z,26.80
2023-05-14T03:57:02.548Z,26.78
2023-05-14T03:58:02.554Z,26.83
2023-05-14T03:59:02.562Z,26.81
2023-05-14T04:00:02.625Z,26.83
2023-05-14T04:01:02.590Z,26.81
2023-05-14T04:02:02.610Z,26.80
2023-05-14T04:03:02.852Z,26.83
2023-05-14T04:04:02.746Z,26.81
2023-05-14T04:05:02.670Z,26.83
2023-05-14T04:06:02.668Z,26.83
2023-05-14T04:07:02.721Z,26.83
2023-05-14T04:08:02.698Z,26.84
2023-05-14T04:09:02.750Z,26.83
2023-05-14T04:10:04.352Z,26.84
2023-05-14T04:11:02.724Z,26.85
2023-05-14T04:12:02.742Z,26.81
2023-05-14T04:13:02.699Z,26.83
2023-05-14T04:14:02.698Z,26.83
2023-05-14T04:15:02.679Z,26.84
2023-05-14T04:16:02.735Z,26.81
2023-05-14T04:17:02.680Z,26.83
2023-05-14T04:18:02.701Z,26.81
2023-05-14T04:19:02.727Z,26.83
2023-05-14T04:20:02.696Z,26.84
2023-05-14T04:21:02.723Z,26.84
2023-05-14T04:22:02.739Z,26.83
2023-05-14T04:23:02.753Z,26.83
2023-05-14T04:24:02.779Z,26.85
2023-05-14T04:25:02.741Z,26.84
2023-05-14T04:26:02.784Z,26.85
2023-05-14T04:27:02.803Z,26.83
2023-05-14T04:28:02.863Z,26.84
2023-05-14T04:29:02.873Z,26.84
2023-05-14T04:30:02.827Z,26.84
2023-05-14T04:31:02.813Z,26.84
2023-05-14T04:32:02.916Z,26.83
2023-05-14T04:33:02.934Z,26.81
2023-05-14T04:34:02.906Z,26.83
2023-05-14T04:35:02.860Z,26.83
2023-05-14T04:36:02.913Z,26.81
2023-05-14T04:37:02.918Z,26.80
2023-05-14T04:38:02.918Z,26.81
2023-05-14T04:39:02.911Z,26.80
2023-05-14T04:40:03.135Z,26.83
2023-05-14T04:41:02.966Z,26.84
2023-05-14T04:42:02.956Z,26.80
2023-05-14T04:43:03.017Z,26.83
2023-05-14T04:44:03.016Z,26.84
2023-05-14T04:45:03.092Z,26.81
2023-05-14T04:46:03.142Z,26.81
2023-05-14T04:47:03.084Z,26.83
2023-05-14T04:48:03.111Z,26.81
2023-05-14T04:49:03.074Z,26.83
2023-05-14T04:50:03.089Z,26.83
2023-05-14T04:51:04.023Z,26.81
2023-05-14T04:52:03.138Z,26.84
2023-05-14T04:53:03.143Z,26.83
2023-05-14T04:54:03.225Z,26.81
2023-05-14T04:55:03.180Z,26.83
2023-05-14T04:56:03.194Z,26.83
2023-05-14T04:57:03.267Z,26.83
2023-05-14T04:58:03.196Z,26.81
2023-05-14T04:59:03.178Z,26.83
2023-05-14T05:00:03.201Z,26.81
2023-05-14T05:01:03.260Z,26.81
2023-05-14T05:02:03.288Z,26.83
2023-05-14T05:03:03.416Z,26.81
2023-05-14T05:04:03.404Z,26.80
2023-05-14T05:05:03.308Z,26.81
2023-05-14T05:06:03.298Z,26.80
2023-05-14T05:07:03.334Z,26.80
2023-05-14T05:08:03.445Z,26.81
2023-05-14T05:09:03.349Z,26.81
2023-05-14T05:10:03.367Z,26.83
2023-05-14T05:11:03.400Z,26.83
2023-05-14T05:12:03.431Z,26.81
2023-05-14T05:13:03.391Z,26.84
2023-05-14T05:14:03.463Z,26.81
2023-05-14T05:15:03.428Z,26.83
2023-05-14T05:16:03.491Z,26.83
2023-05-14T05:17:03.449Z,26.81
2023-05-14T05:18:03.502Z,26.83
2023-05-14T05:19:03.565Z,26.83
2023-05-14T05:20:03.520Z,26.81
2023-05-14T05:21:03.490Z,26.81
2023-05-14T05:22:03.548Z,26.83
2023-05-14T05:23:03.513Z,26.83
2023-05-14T05:24:03.644Z,26.84
2023-05-14T05:25:03.528Z,26.84
2023-05-14T05:26:03.539Z,26.83
2023-05-14T05:27:03.588Z,26.84
2023-05-14T05:28:03.550Z,26.84
2023-05-14T05:29:03.610Z,26.84
2023-05-14T05:30:03.574Z,26.85
2023-05-14T05:31:03.677Z,26.83
2023-05-14T05:32:03.640Z,26.83
2023-05-14T05:33:03.688Z,26.83
2023-05-14T05:34:03.638Z,26.84
2023-05-14T05:35:03.663Z,26.85
2023-05-14T05:36:03.696Z,26.84
2023-05-14T05:37:03.656Z,26.84
2023-05-14T05:38:03.730Z,26.83
2023-05-14T05:39:03.677Z,26.84
2023-05-14T05:40:03.769Z,26.85
2023-05-14T05:41:03.696Z,26.84
2023-05-14T05:42:03.762Z,26.84
2023-05-14T05:43:03.722Z,26.85
2023-05-14T05:44:03.789Z,26.84
2023-05-14T05:45:03.811Z,26.84
2023-05-14T05:46:03.846Z,26.85
2023-05-14T05:47:03.844Z,26.85
2023-05-14T05:48:03.836Z,26.85
2023-05-14T05:49:03.828Z,26.84
2023-05-14T05:50:03.842Z,26.85
2023-05-14T05:51:03.872Z,26.87
2023-05-14T05:52:03.873Z,26.85
2023-05-14T05:53:03.872Z,26.87
2023-05-14T05:54:03.935Z,26.87
2023-05-14T05:55:03.896Z,26.87
2023-05-14T05:56:03.891Z,26.87
2023-05-14T05:57:03.942Z,26.87
2023-05-14T05:58:03.962Z,26.88
2023-05-14T05:59:03.990Z,26.87
2023-05-14T06:00:03.996Z,26.87
2023-05-14T06:01:04.013Z,26.88
2023-05-14T06:02:04.104Z,26.91
2023-05-14T06:03:04.046Z,26.88
2023-05-14T06:04:04.062Z,26.88
2023-05-14T06:05:04.077Z,26.87
2023-05-14T06:06:04.067Z,26.90
2023-05-14T06:07:04.092Z,26.88
2023-05-14T06:08:04.124Z,26.88
2023-05-14T06:09:04.119Z,26.88
2023-05-14T06:10:04.153Z,26.88
2023-05-14T06:11:04.112Z,26.91
2023-05-14T06:12:04.226Z,26.91
2023-05-14T06:13:04.137Z,26.93
2023-05-14T06:14:04.152Z,26.91
2023-05-14T06:15:04.178Z,26.91
2023-05-14T06:16:04.307Z,26.93
2023-05-14T06:17:04.194Z,26.94
2023-05-14T06:18:04.286Z,26.93
2023-05-14T06:19:04.260Z,26.90
2023-05-14T06:20:04.281Z,26.93
2023-05-14T06:21:04.245Z,26.91
2023-05-14T06:22:04.335Z,26.94
2023-05-14T06:23:04.281Z,26.93
2023-05-14T06:24:04.273Z,26.91
2023-05-14T06:25:04.318Z,26.94
2023-05-14T06:26:04.275Z,26.93
2023-05-14T06:27:04.288Z,26.94
2023-05-14T06:28:04.302Z,26.93
2023-05-14T06:29:04.289Z,26.97
2023-05-14T06:30:04.286Z,26.95
2023-05-14T06:31:04.289Z,26.95
2023-05-14T06:32:04.359Z,26.97
2023-05-14T06:33:04.394Z,26.98
2023-05-14T06:34:04.332Z,26.97
2023-05-14T06:35:04.331Z,26.97
2023-05-14T06:36:04.344Z,26.95
2023-05-14T06:37:04.332Z,26.95
2023-05-14T06:38:04.442Z,26.98
2023-05-14T06:39:04.387Z,26.95
2023-05-14T06:40:04.379Z,26.95
2023-05-14T06:41:04.436Z,26.95
2023-05-14T06:42:04.406Z,26.98
2023-05-14T06:43:04.404Z,26.99
2023-05-14T06:44:04.399Z,27.01
2023-05-14T06:45:04.405Z,26.99
2023-05-14T06:46:04.411Z,27.01
2023-05-14T06:47:04.430Z,27.01
2023-05-14T06:48:04.510Z,27.01
2023-05-14T06:49:04.501Z,27.01
2023-05-14T06:50:04.507Z,27.01
2023-05-14T06:51:04.463Z,27.04
2023-05-14T06:52:04.454Z,27.02
2023-05-14T06:53:04.446Z,27.05
2023-05-14T06:54:04.445Z,27.02
2023-05-14T06:55:04.442Z,27.02
2023-05-14T06:56:04.449Z,27.04
2023-05-14T06:57:04.447Z,27.05
2023-05-14T06:58:04.428Z,27.04
2023-05-14T06:59:04.485Z,27.08
2023-05-14T07:00:04.486Z,27.06
2023-05-14T07:01:04.508Z,27.09
2023-05-14T07:02:04.466Z,27.05
2023-05-14T07:03:04.486Z,27.06
2023-05-14T07:04:04.534Z,27.09
2023-05-14T07:05:04.453Z,27.08
2023-05-14T07:06:04.516Z,27.08
2023-05-14T07:07:04.455Z,27.09
2023-05-14T07:08:04.458Z,27.09
2023-05-14T07:09:04.471Z,27.09
2023-05-14T07:10:04.488Z,27.11
2023-05-14T07:11:04.491Z,27.11
2023-05-14T07:12:04.449Z,27.11
2023-05-14T07:13:04.482Z,27.12
2023-05-14T07:14:04.470Z,27.09
2023-05-14T07:15:04.491Z,27.12
2023-05-14T07:16:04.447Z,27.12
2023-05-14T07:17:04.526Z,27.14
2023-05-14T07:18:04.501Z,27.15
2023-05-14T07:19:04.509Z,27.15
2023-05-14T07:20:04.487Z,27.15
2023-05-14T07:21:04.452Z,27.15
2023-05-14T07:22:04.465Z,27.16
2023-05-14T07:23:04.450Z,27.16
2023-05-14T07:24:04.448Z,27.16
2023-05-14T07:25:04.448Z,27.18
2023-05-14T07:26:04.457Z,27.18
2023-05-14T07:27:04.502Z,27.21
2023-05-14T07:28:04.500Z,27.21
2023-05-14T07:29:04.460Z,27.18
2023-05-14T07:30:04.525Z,27.21
2023-05-14T07:31:04.541Z,27.21
2023-05-14T07:32:04.478Z,27.22
2023-05-14T07:33:04.610Z,27.22
2023-05-14T07:34:04.547Z,27.21
2023-05-14T07:35:04.587Z,27.25
2023-05-14T07:36:04.624Z,27.22
2023-05-14T07:37:04.675Z,27.25
2023-05-14T07:38:04.686Z,27.22
2023-05-14T07:39:04.747Z,27.24
2023-05-14T07:40:04.775Z,27.25
2023-05-14T07:41:04.789Z,27.28
2023-05-14T07:42:04.800Z,27.26
2023-05-14T07:43:04.834Z,27.26
2023-05-14T07:44:04.828Z,27.28
2023-05-14T07:45:04.901Z,27.28
2023-05-14T07:46:04.948Z,27.26
2023-05-14T07:47:05.048Z,27.29
2023-05-14T07:48:05.037Z,27.31
2023-05-14T07:49:05.022Z,27.29
2023-05-14T07:50:04.996Z,27.31
2023-05-14T07:51:05.070Z,27.28
2023-05-14T07:52:05.055Z,27.32
2023-05-14T07:53:05.110Z,27.35
2023-05-14T07:54:05.145Z,27.35
2023-05-14T07:55:05.219Z,27.36
2023-05-14T07:56:05.227Z,27.38
2023-05-14T07:57:05.268Z,27.38
2023-05-14T07:58:05.320Z,27.36
2023-05-14T07:59:05.351Z,27.39
2023-05-14T08:00:05.430Z,27.39
2023-05-14T08:01:05.477Z,27.39
2023-05-14T08:02:05.593Z,27.42
2023-05-14T08:03:05.684Z,27.42
2023-05-14T08:04:05.754Z,27.41
2023-05-14T08:05:05.742Z,27.43
2023-05-14T08:06:05.815Z,27.42
2023-05-14T08:07:05.915Z,27.42
2023-05-14T08:08:05.971Z,27.45
2023-05-14T08:09:05.978Z,27.45
2023-05-14T08:10:06.045Z,27.46
2023-05-14T08:11:06.172Z,27.48
2023-05-14T08:12:06.167Z,27.50
2023-05-14T08:13:06.260Z,27.49
2023-05-14T08:14:06.335Z,27.50
2023-05-14T08:15:06.417Z,27.52
2023-05-14T08:16:06.441Z,27.52
2023-05-14T08:17:06.512Z,27.53
2023-05-14T08:18:06.561Z,27.54
2023-05-14T08:19:06.639Z,27.53
2023-05-14T08:20:06.657Z,27.56
2023-05-14T08:21:06.709Z,27.57
2023-05-14T08:22:06.768Z,27.56
2023-05-14T08:23:06.835Z,27.60
2023-05-14T08:24:06.900Z,27.60
2023-05-14T08:25:06.948Z,27.62
2023-05-14T08:26:06.965Z,27.63
2023-05-14T08:27:07.033Z,27.63
2023-05-14T08:28:07.147Z,27.63
2023-05-14T08:29:08.723Z,27.64
2023-05-14T08:30:07.145Z,27.66
2023-05-14T08:31:07.155Z,27.67
2023-05-14T08:32:19.359Z,27.67
2023-05-14T08:33:08.168Z,27.70
2023-05-14T08:34:07.140Z,27.70
2023-05-14T08:35:07.114Z,27.72
2023-05-14T08:36:07.133Z,27.74
2023-05-14T08:37:07.104Z,27.73
2023-05-14T08:38:07.095Z,27.74
2023-05-14T08:39:07.102Z,27.74
2023-05-14T08:40:07.106Z,27.76
2023-05-14T08:41:07.074Z,27.77
2023-05-14T08:42:07.079Z,27.80
2023-05-14T08:43:07.140Z,27.80
2023-05-14T08:44:07.156Z,27.82
2023-05-14T08:45:07.146Z,27.83
2023-05-14T08:46:07.208Z,27.84
2023-05-14T08:47:07.253Z,27.82
2023-05-14T08:48:07.344Z,27.84
2023-05-14T08:49:07.402Z,27.86
2023-05-14T08:50:07.362Z,27.87
2023-05-14T08:51:07.427Z,27.87
2023-05-14T08:52:07.451Z,27.90
2023-05-14T08:53:07.504Z,27.90
2023-05-14T08:54:07.561Z,27.93
2023-05-14T08:55:07.538Z,27.91
2023-05-14T08:56:07.625Z,27.91
2023-05-14T08:57:07.628Z,27.91
2023-05-14T08:58:07.697Z,27.91
2023-05-14T08:59:07.674Z,27.93
2023-05-14T09:00:07.701Z,27.96
2023-05-14T09:01:07.788Z,27.93
2023-05-14T09:02:07.921Z,27.96
2023-05-14T09:03:08.057Z,27.93
2023-05-14T09:04:07.902Z,27.94
2023-05-14T09:05:07.915Z,27.97
2023-05-14T09:06:07.935Z,27.96
2023-05-14T09:07:08.001Z,27.96
2023-05-14T09:08:07.973Z,27.99
2023-05-14T09:09:08.031Z,27.96
2023-05-14T09:10:08.098Z,27.96
2023-05-14T09:11:08.182Z,27.99
2023-05-14T09:12:08.147Z,27.99
2023-05-14T09:13:08.212Z,28.00
2023-05-14T09:14:08.174Z,27.99
2023-05-14T09:15:08.262Z,28.00
2023-05-14T09:16:08.288Z,28.00
2023-05-14T09:17:08.326Z,28.01
2023-05-14T09:18:08.449Z,28.01
2023-05-14T09:19:08.364Z,28.03
2023-05-14T09:20:08.418Z,28.01
2023-05-14T09:21:08.431Z,28.01
2023-05-14T09:22:08.432Z,28.04
2023-05-14T09:23:08.488Z,28.04
2023-05-14T09:24:08.548Z,28.04
2023-05-14T09:25:08.548Z,28.05
2023-05-14T09:26:08.585Z,28.05
2023-05-14T09:27:08.598Z,28.01
2023-05-14T09:28:08.623Z,28.04
2023-05-14T09:29:08.634Z,28.05
2023-05-14T09:30:08.657Z,28.04
2023-05-14T09:31:08.700Z,28.05
2023-05-14T09:32:08.776Z,28.08
2023-05-14T09:33:08.782Z,28.05
2023-05-14T09:34:08.750Z,28.05
2023-05-14T09:35:08.817Z,28.10
2023-05-14T09:36:08.812Z,28.10
2023-05-14T09:37:08.845Z,28.10
2023-05-14T09:38:08.880Z,28.08
2023-05-14T09:39:08.874Z,28.08
2023-05-14T09:40:08.892Z,28.10
2023-05-14T09:41:08.965Z,28.08
2023-05-14T09:42:08.914Z,28.08
2023-05-14T09:43:08.956Z,28.10
2023-05-14T09:44:08.981Z,28.08
2023-05-14T09:45:09.008Z,28.11
2023-05-14T09:46:09.013Z,28.13
2023-05-14T09:47:09.084Z,28.10
2023-05-14T09:48:09.133Z,28.11
2023-05-14T09:49:09.079Z,28.11
2023-05-14T09:50:09.149Z,28.11
2023-05-14T09:51:09.121Z,28.13
2023-05-14T09:52:09.143Z,28.13
2023-05-14T09:53:09.135Z,28.15
2023-05-14T09:54:09.145Z,28.15
2023-05-14T09:55:09.155Z,28.15
2023-05-14T09:56:09.153Z,28.15
2023-05-14T09:57:09.173Z,28.15
2023-05-14T09:58:09.203Z,28.17
2023-05-14T09:59:09.203Z,28.20
2023-05-14T10:00:09.202Z,28.17
2023-05-14T10:01:09.260Z,28.20
2023-05-14T10:02:09.248Z,28.20
2023-05-14T10:03:09.273Z,28.18
2023-05-14T10:04:09.259Z,28.20
2023-05-14T10:05:09.262Z,28.18
2023-05-14T10:06:09.271Z,28.21
2023-05-14T10:07:09.278Z,28.20
2023-05-14T10:08:09.297Z,28.22
2023-05-14T10:09:09.293Z,28.21
2023-05-14T10:10:09.300Z,28.22
2023-05-14T10:11:09.299Z,28.22
2023-05-14T10:12:09.304Z,28.22
2023-05-14T10:13:09.314Z,28.22
2023-05-14T10:14:09.356Z,28.21
2023-05-14T10:15:09.309Z,28.22
2023-05-14T10:16:09.306Z,28.21
2023-05-14T10:17:09.396Z,28.22
2023-05-14T10:18:09.426Z,28.25
2023-05-14T10:19:09.472Z,28.27
2023-05-14T10:20:09.390Z,28.25
2023-05-14T10:21:09.361Z,28.24
2023-05-14T10:22:09.382Z,28.22
2023-05-14T10:23:09.426Z,28.25
2023-05-14T10:24:09.372Z,28.25
2023-05-14T10:25:09.420Z,28.28
2023-05-14T10:26:09.391Z,28.27
2023-05-14T10:27:09.399Z,28.27
2023-05-14T10:28:09.415Z,28.28
2023-05-14T10:29:09.448Z,28.28
2023-05-14T10:30:09.392Z,28.27
2023-05-14T10:31:09.447Z,28.28
2023-05-14T10:32:09.416Z,28.27
2023-05-14T10:33:09.458Z,28.32
2023-05-14T10:34:09.417Z,28.30
2023-05-14T10:35:09.421Z,28.28
2023-05-14T10:36:09.383Z,28.30
2023-05-14T10:37:09.437Z,28.31
2023-05-14T10:38:09.411Z,28.30
2023-05-14T10:39:09.409Z,28.31
2023-05-14T10:40:09.413Z,28.30
2023-05-14T10:41:09.435Z,28.32
2023-05-14T10:42:09.392Z,28.31
2023-05-14T10:43:09.395Z,28.28
2023-05-14T10:44:09.471Z,28.27
2023-05-14T10:45:09.417Z,28.30
2023-05-14T10:46:09.498Z,28.31
2023-05-14T10:47:09.437Z,28.34
2023-05-14T10:48:09.465Z,28.31
2023-05-14T10:49:09.418Z,28.31
2023-05-14T10:50:09.436Z,28.31
2023-05-14T10:51:09.455Z,28.31
2023-05-14T10:52:09.450Z,28.31
2023-05-14T10:53:09.441Z,28.31
2023-05-14T10:54:09.412Z,28.30
2023-05-14T10:55:09.412Z,28.28
2023-05-14T10:56:09.457Z,28.28
2023-05-14T10:57:09.431Z,28.30
2023-05-14T10:58:09.406Z,28.28
2023-05-14T10:59:09.410Z,28.28
2023-05-14T11:00:09.415Z,28.30
2023-05-14T11:01:09.434Z,28.28
2023-05-14T11:02:09.527Z,28.25
2023-05-14T11:03:09.495Z,28.27
2023-05-14T11:04:09.495Z,28.25
2023-05-14T11:05:09.446Z,28.24
2023-05-14T11:06:09.439Z,28.27
2023-05-14T11:07:09.472Z,28.25
2023-05-14T11:08:09.477Z,28.25
2023-05-14T11:09:09.447Z,28.25
2023-05-14T11:10:09.446Z,28.25
2023-05-14T11:11:09.478Z,28.25
2023-05-14T11:12:09.485Z,28.22
2023-05-14T11:13:09.437Z,28.25
2023-05-14T11:14:10.210Z,28.25
2023-05-14T11:15:09.507Z,28.24
2023-05-14T11:16:21.709Z,28.22
2023-05-14T11:17:10.655Z,28.24
2023-05-14T11:18:09.556Z,28.24
2023-05-14T11:19:09.494Z,28.25
2023-05-14T11:20:09.452Z,28.24
2023-05-14T11:21:09.484Z,28.24
2023-05-14T11:22:09.437Z,28.24
2023-05-14T11:23:09.466Z,28.25
2023-05-14T11:24:09.460Z,28.25
2023-05-14T11:25:09.453Z,28.24
2023-05-14T11:26:09.418Z,28.25
2023-05-14T11:27:09.403Z,28.25
2023-05-14T11:28:09.411Z,28.25
2023-05-14T11:29:09.398Z,28.27
2023-05-14T11:30:09.409Z,28.24
2023-05-14T11:31:09.397Z,28.22
2023-05-14T11:32:09.404Z,28.27
2023-05-14T11:33:09.385Z,28.24
2023-05-14T11:34:09.378Z,28.24
2023-05-14T11:35:09.408Z,28.24
2023-05-14T11:36:09.358Z,28.28
2023-05-14T11:37:09.339Z,28.27
2023-05-14T11:38:09.393Z,28.24
2023-05-14T11:39:09.314Z,28.30
2023-05-14T11:40:09.327Z,28.30
2023-05-14T11:41:09.316Z,28.28
2023-05-14T11:42:09.293Z,28.31
2023-05-14T11:43:09.275Z,28.28
2023-05-14T11:44:09.280Z,28.28
2023-05-14T11:45:09.292Z,28.30
2023-05-14T11:46:09.318Z,28.30
2023-05-14T11:47:09.297Z,28.30
2023-05-14T11:48:09.275Z,28.32
2023-05-14T11:49:09.246Z,28.31
2023-05-14T11:50:09.646Z,28.32
2023-05-14T11:51:09.219Z,28.30
2023-05-14T11:52:09.237Z,28.32
2023-05-14T11:53:09.302Z,28.30
2023-05-14T11:54:09.208Z,28.30
2023-05-14T11:55:09.251Z,28.30
2023-05-14T11:56:09.918Z,28.28
2023-05-14T11:57:09.185Z,28.27
2023-05-14T11:58:09.170Z,28.28
2023-05-14T11:59:09.169Z,28.30
2023-05-14T12:00:09.216Z,28.28
2023-05-14T12:01:09.148Z,28.28
2023-05-14T12:02:09.193Z,28.28
2023-05-14T12:03:09.257Z,28.28
2023-05-14T12:04:09.191Z,28.25
2023-05-14T12:05:09.179Z,28.25
2023-05-14T12:06:09.126Z,28.27
2023-05-14T12:07:09.141Z,28.24
2023-05-14T12:08:09.124Z,28.27
2023-05-14T12:09:09.277Z,28.25
2023-05-14T12:10:09.111Z,28.25
2023-05-14T12:11:09.126Z,28.24
2023-05-14T12:12:09.095Z,28.21
2023-05-14T12:13:09.092Z,28.25
2023-05-14T12:14:09.117Z,28.21
2023-05-14T12:15:09.117Z,28.24
2023-05-14T12:16:09.166Z,28.21
2023-05-14T12:17:09.121Z,28.22
2023-05-14T12:18:22.971Z,28.21
2023-05-14T12:19:10.176Z,28.21
2023-05-14T12:20:09.128Z,28.18
2023-05-14T12:21:09.127Z,28.22
2023-05-14T12:22:09.114Z,28.21
2023-05-14T12:23:09.102Z,28.21
2023-05-14T12:24:09.072Z,28.21
2023-05-14T12:25:09.090Z,28.20
2023-05-14T12:26:09.098Z,28.20
2023-05-14T12:27:09.099Z,28.18
2023-05-14T12:28:09.075Z,28.20
2023-05-14T12:29:09.039Z,28.18
2023-05-14T12:30:19.799Z,28.20
2023-05-14T12:31:10.080Z,28.18
2023-05-14T12:32:09.051Z,28.20
2023-05-14T12:33:09.091Z,28.17
2023-05-14T12:34:09.005Z,28.17
2023-05-14T12:35:09.048Z,28.17
2023-05-14T12:37:09.036Z,28.15
2023-05-14T12:38:09.008Z,28.17
2023-05-14T12:39:09.002Z,28.14
2023-05-14T12:40:09.082Z,28.17
2023-05-14T12:41:09.027Z,28.15
2023-05-14T12:42:08.966Z,28.15
2023-05-14T12:43:08.968Z,28.17
2023-05-14T12:44:08.944Z,28.15
2023-05-14T12:45:09.059Z,28.15
2023-05-14T12:46:08.985Z,28.15
2023-05-14T12:47:08.992Z,28.17
2023-05-14T12:48:08.995Z,28.17
2023-05-14T12:49:08.905Z,28.17
2023-05-14T12:50:08.902Z,28.15
2023-05-14T12:51:08.917Z,28.14
2023-05-14T12:53:09.919Z,28.17
2023-05-14T12:54:08.884Z,28.15